Time;durP1;ratioP1;P1;durP2;ratioP2;P2;SDS_P1;SDS_P2;PMS_P1;PMS_P2;Temp;Humidity;BMP_temperature;BMP_pressure;BME280_temperature;BME280_humidity;BME280_pressure;Samples;Min_cycle;Max_cycle;Signal;HPM_P1;HPM_P2
2021/03/31 00:01:23;;;;;;;;;;;;;;;19.40;65.62;102060.25;5109554;28;1343;-65
2021/03/31 00:03:50;;;;;;;;;;;;;;;19.41;65.61;102053.19;5109754;28;1913;-65
2021/03/31 00:06:16;;;;;;;;;;;;;;;19.42;65.53;102054.91;5109883;28;1283;-65
2021/03/31 00:08:43;;;;;;;;;;;;;;;19.41;65.30;102056.69;5109657;28;1051;-65
2021/03/31 00:11:09;;;;;;;;;;;;;;;19.42;65.51;102041.72;5109334;28;1354;-65
2021/03/31 00:13:36;;;;;;;;;;;;;;;19.41;65.62;102047.91;5109781;28;1304;-65
2021/03/31 00:16:02;;;;;;;;;;;;;;;19.41;65.78;102047.91;5110013;28;1267;-65
2021/03/31 00:18:30;;;;;;;;;;;;;;;19.40;65.63;102043.53;5091373;28;1338;-65
2021/03/31 00:21:00;;;;;;;;;;;;;;;19.38;65.25;102035.66;5091891;28;1406;-65
2021/03/31 00:23:28;;;;;;;;;;;;;;;19.38;65.50;102034.78;5109755;28;1973;-66
2021/03/31 00:25:55;;;;;;;;;;;;;;;19.38;65.14;102034.78;5109611;28;1253;-65
2021/03/31 00:28:21;;;;;;;;;;;;;;;19.40;65.65;102038.25;5109825;28;1114;-65
2021/03/31 00:30:48;;;;;;;;;;;;;;;19.41;65.76;102039.97;5109290;28;767;-65
2021/03/31 00:33:15;;;;;;;;;;;;;;;19.40;65.62;102039.13;5074136;28;1518;-65
2021/03/31 00:35:41;;;;;;;;;;;;;;;19.40;65.36;102030.31;5109558;28;1024;-65
2021/03/31 00:38:08;;;;;;;;;;;;;;;19.39;65.05;102033.88;5109287;28;1220;-66
2021/03/31 00:40:37;;;;;;;;;;;;;;;19.38;65.21;102034.78;5109166;28;1259;-66
2021/03/31 00:43:03;;;;;;;;;;;;;;;19.37;64.96;102031.28;5090819;28;1909;-65
2021/03/31 00:45:29;;;;;;;;;;;;;;;19.38;65.01;102035.66;5109316;28;937;-66
2021/03/31 00:47:56;;;;;;;;;;;;;;;19.40;65.17;102027.69;5108955;28;1454;-65
2021/03/31 00:50:22;;;;;;;;;;;;;;;19.39;65.36;102020.66;5109099;28;818;-66
2021/03/31 00:52:49;;;;;;;;;;;;;;;19.40;65.18;102027.69;5109383;28;1680;-65
2021/03/31 00:55:17;;;;;;;;;;;;;;;19.39;65.51;102025.94;5109354;28;785;-66
2021/03/31 00:57:43;;;;;;;;;;;;;;;19.38;65.16;102018.94;5109168;28;1220;-65
2021/03/31 01:00:10;;;;;;;;;;;;;;;19.37;65.45;102017.19;5077038;28;1261;-66
2021/03/31 01:02:37;;;;;;;;;;;;;;;19.36;64.93;102015.50;5113181;28;1907;-65
2021/03/31 01:05:22;;;;;;;;;;;;;;;19.37;65.53;102018.06;5113491;28;1241;-66
2021/03/31 01:07:48;;;;;;;;;;;;;;;19.37;65.10;102014.56;5113647;28;1295;-66
2021/03/31 01:10:16;;;;;;;;;;;;;;;19.39;65.16;102010.09;5113139;28;803;-66
2021/03/31 01:12:42;;;;;;;;;;;;;;;19.39;65.00;102021.56;5111021;27;1533;-65
2021/03/31 01:15:09;;;;;;;;;;;;;;;19.40;64.80;102011.81;5097236;28;829;-66
2021/03/31 01:17:51;;;;;;;;;;;;;;;19.39;64.57;102012.72;5111156;28;1224;-66
2021/03/31 01:20:36;;;;;;;;;;;;;;;19.36;64.51;102004.94;5075214;28;842;-65
2021/03/31 01:23:22;;;;;;;;;;;;;;;19.36;64.35;102005.75;5074380;28;1961;-66
2021/03/31 01:25:58;;;;;;;;;;;;;;;19.36;64.45;102000.47;5074402;28;834;-66
2021/03/31 01:28:34;;;;;;;;;;;;;;;19.38;64.34;102003.06;5092700;28;1158;-66
2021/03/31 01:31:28;;;;;;;;;;;;;;;19.39;64.47;101996.88;5092425;28;1358;-66
2021/03/31 01:33:54;;;;;;;;;;;;;;;19.39;64.90;101992.50;5092249;28;767;-66
2021/03/31 01:36:24;;;;;;;;;;;;;;;19.38;64.81;101992.50;5092462;28;1220;-66
2021/03/31 01:38:55;;;;;;;;;;;;;;;19.36;65.36;101989.91;5092173;28;1003;-66
2021/03/31 01:41:22;;;;;;;;;;;;;;;19.36;64.41;101987.25;5092054;28;1220;-66
2021/03/31 01:43:51;;;;;;;;;;;;;;;19.36;64.23;101984.63;5092007;28;1983;-66
2021/03/31 01:46:26;;;;;;;;;;;;;;;19.35;64.41;101980.28;5073498;28;1244;-65
2021/03/31 01:48:53;;;;;;;;;;;;;;;19.37;64.17;101977.56;5091831;28;1076;-65
2021/03/31 01:51:20;;;;;;;;;;;;;;;19.37;64.17;101974.91;5073236;28;1256;-65
2021/03/31 01:53:47;;;;;;;;;;;;;;;19.37;64.12;101964.34;5073495;28;1097;-66
2021/03/31 01:56:15;;;;;;;;;;;;;;;19.36;63.84;101965.28;5091996;28;1293;-65
2021/03/31 01:58:42;;;;;;;;;;;;;;;19.36;63.65;101962.66;5091696;28;1323;-64
2021/03/31 02:01:17;;;;;;;;;;;;;;;19.35;63.57;101963.56;5091833;28;1351;-65
2021/03/31 02:03:45;;;;;;;;;;;;;;;19.35;63.51;101950.34;5091745;28;1958;-65
2021/03/31 02:06:12;;;;;;;;;;;;;;;19.35;64.15;101947.72;5091553;28;1331;-65
2021/03/31 02:08:42;;;;;;;;;;;;;;;19.35;63.80;101942.44;5091575;28;1061;-67
2021/03/31 02:11:20;;;;;;;;;;;;;;;19.36;63.62;101947.63;5071948;28;1224;-66
2021/03/31 02:13:47;;;;;;;;;;;;;;;19.37;63.90;101945.84;5091377;28;822;-64
2021/03/31 02:16:14;;;;;;;;;;;;;;;19.35;63.84;101947.72;5091273;28;1240;-65
2021/03/31 02:18:41;;;;;;;;;;;;;;;19.35;63.15;101947.72;5091848;28;937;-66
2021/03/31 02:21:08;;;;;;;;;;;;;;;19.34;63.08;101941.56;5091239;28;1240;-65
2021/03/31 02:23:39;;;;;;;;;;;;;;;19.33;62.79;101944.28;5091996;28;1906;-66
2021/03/31 02:26:06;;;;;;;;;;;;;;;19.34;62.48;101938.06;5072724;28;1283;-66
2021/03/31 02:28:32;;;;;;;;;;;;;;;19.34;62.48;101931.00;5094359;28;1607;-66
2021/03/31 02:30:58;;;;;;;;;;;;;;;19.35;62.48;101935.38;5091228;28;1238;-66
2021/03/31 02:33:27;;;;;;;;;;;;;;;19.35;62.92;101932.72;5107683;28;1212;-66
2021/03/31 02:35:54;;;;;;;;;;;;;;;19.36;63.44;101931.78;5093156;28;790;-66
2021/03/31 02:38:22;;;;;;;;;;;;;;;19.35;62.93;101926.56;5111295;28;1197;-66
2021/03/31 02:40:52;;;;;;;;;;;;;;;19.34;62.85;101928.34;5087089;28;818;-66
2021/03/31 02:43:19;;;;;;;;;;;;;;;19.34;62.63;101927.50;5072896;28;1906;-66
2021/03/31 02:45:47;;;;;;;;;;;;;;;19.33;62.59;101925.78;5091295;28;870;-66
2021/03/31 02:48:15;;;;;;;;;;;;;;;19.34;63.10;101922.19;5072901;28;1318;-66
2021/03/31 02:50:42;;;;;;;;;;;;;;;19.33;63.16;101918.69;5091289;28;1061;-66
2021/03/31 02:53:10;;;;;;;;;;;;;;;19.36;63.36;101923.84;5072646;28;1286;-66
2021/03/31 02:55:37;;;;;;;;;;;;;;;19.36;63.48;101925.66;5090842;28;760;-66
2021/03/31 02:58:05;;;;;;;;;;;;;;;19.35;63.03;101923.94;5072465;28;1351;-66
2021/03/31 03:00:32;;;;;;;;;;;;;;;19.35;63.41;101918.66;5090850;28;932;-67
2021/03/31 03:02:58;;;;;;;;;;;;;;;19.33;63.72;101921.34;5090527;28;1906;-67
2021/03/31 03:05:25;;;;;;;;;;;;;;;19.33;63.06;101921.34;5090399;28;1195;-67
2021/03/31 03:07:51;;;;;;;;;;;;;;;19.33;63.09;101923.97;5090572;28;1236;-65
2021/03/31 03:10:21;;;;;;;;;;;;;;;19.33;62.78;101917.88;5071781;28;1073;-66
2021/03/31 03:12:51;;;;;;;;;;;;;;;19.34;63.02;101919.56;5090469;28;1209;-66
2021/03/31 03:15:19;;;;;;;;;;;;;;;19.35;63.06;101921.28;5090440;28;1147;-66
2021/03/31 03:17:45;;;;;;;;;;;;;;;19.35;62.53;101921.28;5090282;28;1247;-65
2021/03/31 03:20:12;;;;;;;;;;;;;;;19.34;62.64;101919.56;5089585;28;842;-67
2021/03/31 03:22:40;;;;;;;;;;;;;;;19.33;62.80;101925.78;5089776;28;1248;-66
2021/03/31 03:25:08;;;;;;;;;;;;;;;19.34;62.71;101922.19;5090188;28;1913;-66
2021/03/31 03:27:35;;;;;;;;;;;;;;;19.33;62.59;101920.50;5090307;28;1209;-66
2021/03/31 03:30:06;;;;;;;;;;;;;;;19.33;62.62;101923.16;5072114;28;901;-66
2021/03/31 03:32:33;;;;;;;;;;;;;;;19.33;63.04;101921.34;5090269;28;1277;-66
2021/03/31 03:34:59;;;;;;;;;;;;;;;19.34;62.88;101923.06;5090113;28;794;-66
2021/03/31 03:37:25;;;;;;;;;;;;;;;19.33;62.60;101923.97;5090031;28;1248;-66
2021/03/31 03:39:52;;;;;;;;;;;;;;;19.34;62.62;101919.56;5090056;28;869;-67
2021/03/31 03:42:18;;;;;;;;;;;;;;;19.33;62.27;101917.88;5089722;28;1326;-66
2021/03/31 03:44:45;;;;;;;;;;;;;;;19.33;62.10;101920.50;5089919;28;1910;-66
2021/03/31 03:47:11;;;;;;;;;;;;;;;19.32;62.04;101914.34;5089689;28;1212;-66
2021/03/31 03:49:38;;;;;;;;;;;;;;;19.32;61.97;101916.13;5089835;28;797;-67
2021/03/31 03:52:05;;;;;;;;;;;;;;;19.33;62.15;101921.34;5089757;28;1464;-67
2021/03/31 03:54:32;;;;;;;;;;;;;;;19.32;62.61;101918.78;5089915;28;802;-67
2021/03/31 03:56:58;;;;;;;;;;;;;;;19.33;62.71;101915.22;5089571;28;1320;-65
2021/03/31 03:59:27;;;;;;;;;;;;;;;19.33;62.16;101915.22;5089543;28;1208;-67
2021/03/31 04:02:13;;;;;;;;;;;;;;;19.33;62.08;101915.22;5089673;28;1406;-67
2021/03/31 04:04:53;;;;;;;;;;;;;;;19.33;62.03;101920.50;5089438;28;1941;-66
2021/03/31 04:07:19;;;;;;;;;;;;;;;19.31;61.77;101917.03;5089220;28;1217;-67
2021/03/31 04:09:47;;;;;;;;;;;;;;;19.30;61.71;101916.19;5089703;28;865;-67
2021/03/31 04:12:15;;;;;;;;;;;;;;;19.32;61.81;101916.13;5089359;28;1295;-66
2021/03/31 04:14:41;;;;;;;;;;;;;;;19.31;61.83;101917.91;5089377;28;784;-67
2021/03/31 04:17:10;;;;;;;;;;;;;;;19.31;62.23;101920.56;5093240;28;1549;-67
2021/03/31 04:19:37;;;;;;;;;;;;;;;19.31;61.43;101917.03;5103315;28;1713;-66
2021/03/31 04:22:05;;;;;;;;;;;;;;;19.31;61.66;101917.03;5083273;28;1865;-66
2021/03/31 04:24:32;;;;;;;;;;;;;;;19.31;61.08;101912.63;5103001;28;1984;-67
2021/03/31 04:26:59;;;;;;;;;;;;;;;19.31;60.88;101911.75;5086577;28;1757;-66
2021/03/31 04:29:26;;;;;;;;;;;;;;;19.29;60.62;101911.84;5103311;28;1780;-66
2021/03/31 04:31:52;;;;;;;;;;;;;;;19.31;60.73;101917.03;5104419;28;1810;-66
2021/03/31 04:34:19;;;;;;;;;;;;;;;19.30;60.96;101913.53;5091107;28;841;-67
2021/03/31 04:36:46;;;;;;;;;;;;;;;19.31;61.77;101917.91;5090815;28;1289;-66
2021/03/31 04:39:12;;;;;;;;;;;;;;;19.31;61.54;101917.03;5109141;28;786;-66
2021/03/31 04:41:38;;;;;;;;;;;;;;;19.31;61.27;101911.75;5090821;28;1326;-66
2021/03/31 04:44:05;;;;;;;;;;;;;;;19.30;61.34;101915.34;5109321;28;1911;-67
2021/03/31 04:46:31;;;;;;;;;;;;;;;19.30;60.47;101916.19;5109538;28;1296;-67
2021/03/31 04:48:57;;;;;;;;;;;;;;;19.31;60.53;101914.41;5104177;28;1603;-67
2021/03/31 04:51:24;;;;;;;;;;;;;;;19.29;60.23;101917.13;5098091;28;1409;-66
2021/03/31 04:53:50;;;;;;;;;;;;;;;19.30;60.63;101915.34;5088805;28;818;-67
2021/03/31 04:56:16;;;;;;;;;;;;;;;19.29;60.75;101913.63;5088613;28;1318;-67
2021/03/31 04:58:46;;;;;;;;;;;;;;;19.24;60.79;101908.50;5070812;28;1196;-67
2021/03/31 05:01:12;;;;;;;;;;;;;;;19.30;61.33;101910.06;5088908;28;1324;-66
2021/03/31 05:03:38;;;;;;;;;;;;;;;19.30;60.87;101910.06;5070306;28;1902;-67
2021/03/31 05:06:05;;;;;;;;;;;;;;;19.29;60.79;101914.47;5053638;28;1246;-66
2021/03/31 05:08:31;;;;;;;;;;;;;;;19.29;60.49;101913.63;5088869;28;1260;-66
2021/03/31 05:10:57;;;;;;;;;;;;;;;19.28;59.98;101911.88;5070289;28;1352;-66
2021/03/31 05:13:23;;;;;;;;;;;;;;;19.28;60.00;101906.59;5070446;28;1154;-67
2021/03/31 05:15:49;;;;;;;;;;;;;;;19.29;60.08;101910.97;5088569;28;790;-67
2021/03/31 05:18:16;;;;;;;;;;;;;;;19.28;60.54;101898.69;5070499;28;1252;-67
2021/03/31 05:20:42;;;;;;;;;;;;;;;19.29;60.48;101905.69;5070262;28;1156;-67
2021/03/31 05:23:09;;;;;;;;;;;;;;;19.30;60.40;101910.06;5087933;28;1901;-67
2021/03/31 05:25:35;;;;;;;;;;;;;;;19.29;60.18;101900.41;5088279;28;841;-67
2021/03/31 05:28:01;;;;;;;;;;;;;;;19.29;59.94;101897.75;5088333;28;1295;-67
2021/03/31 05:30:28;;;;;;;;;;;;;;;19.26;59.67;101909.31;5088742;28;1084;-67
2021/03/31 05:32:54;;;;;;;;;;;;;;;19.26;59.69;101896.13;5070164;28;1268;-66
2021/03/31 05:35:20;;;;;;;;;;;;;;;19.26;59.74;101903.19;5089021;28;809;-67
2021/03/31 05:37:47;;;;;;;;;;;;;;;19.26;59.73;101895.25;5088601;28;1252;-67
2021/03/31 05:40:13;;;;;;;;;;;;;;;19.27;59.92;101894.34;5088282;28;879;-67
2021/03/31 05:42:40;;;;;;;;;;;;;;;19.28;60.04;101896.03;5070135;28;1395;-67
2021/03/31 05:45:07;;;;;;;;;;;;;;;19.28;59.94;101896.03;5089535;28;1909;-66
2021/03/31 05:47:37;;;;;;;;;;;;;;;19.27;59.71;101891.69;5074153;28;1228;-66
2021/03/31 05:50:05;;;;;;;;;;;;;;;19.26;59.28;101892.59;5106434;27;1471;-65
2021/03/31 05:52:31;;;;;;;;;;;;;;;19.28;60.43;101893.41;5095607;28;1445;-65
2021/03/31 05:55:01;;;;;;;;;;;;;;;19.30;60.26;101899.50;5079847;28;1192;-65
2021/03/31 05:57:30;;;;;;;;;;;;;;;19.30;59.54;101902.13;5112084;28;1322;-70
2021/03/31 05:59:56;;;;;;;;;;;;;;;19.38;61.68;101903.53;5105690;28;1462;-67
2021/03/31 06:02:27;;;;;;;;;;;;;;;19.39;63.44;101901.75;5085858;28;1531;-67
2021/03/31 06:04:54;;;;;;;;;;;;;;;19.35;61.52;101897.50;5109885;27;1909;-67
2021/03/31 06:07:20;;;;;;;;;;;;;;;19.34;61.66;101901.06;5075144;28;1350;-67
2021/03/31 06:10:09;;;;;;;;;;;;;;;19.33;62.25;101904.66;5075887;28;751;-67
2021/03/31 06:12:36;;;;;;;;;;;;;;;19.32;61.85;101901.16;5111990;28;1278;-66
2021/03/31 06:15:14;;;;;;;;;;;;;;;19.32;62.08;101906.44;5111767;28;1091;-72
2021/03/31 06:17:44;;;;;;;;;;;;;;;19.47;62.21;101904.97;5093260;28;1492;-69
2021/03/31 06:20:11;;;;;;;;;;;;;;;19.44;62.83;101897.16;5073693;28;1279;-67
2021/03/31 06:23:05;;;;;;;;;;;;;;;19.37;63.29;101906.22;5091234;28;1221;-66
2021/03/31 06:25:31;;;;;;;;;;;;;;;19.31;61.47;101902.06;5091320;28;1910;-66
2021/03/31 06:27:59;;;;;;;;;;;;;;;19.34;62.14;101901.06;5072988;28;1216;-68
2021/03/31 06:30:26;;;;;;;;;;;;;;;19.36;61.39;101902.72;5097339;28;1474;-65
2021/03/31 06:32:53;;;;;;;;;;;;;;;19.37;61.43;101909.72;5095038;28;1307;-68
2021/03/31 06:35:21;;;;;;;;;;;;;;;19.39;61.43;101913.22;5077551;27;1668;-67
2021/03/31 06:37:47;;;;;;;;;;;;;;;19.36;60.84;101907.16;5108302;28;1362;-66
2021/03/31 06:40:30;;;;;;;;;;;;;;;19.33;60.59;101917.88;5090706;28;1319;-68
2021/03/31 06:43:24;;;;;;;;;;;;;;;19.32;60.86;101913.50;5107488;28;1298;-69
2021/03/31 06:48:31;;;;;;;;;;;;;;;19.30;60.29;101915.34;5085361;28;1520;-67
2021/03/31 06:50:57;;;;;;;;;;;;;;;19.30;60.44;101912.72;5104052;28;1446;-68
2021/03/31 06:53:28;;;;;;;;;;;;;;;19.30;60.28;101916.19;5108014;28;1245;-68
2021/03/31 06:56:01;;;;;;;;;;;;;;;19.28;60.14;101917.16;5107401;28;1284;-67
2021/03/31 06:58:27;;;;;;;;;;;;;;;19.28;60.19;101917.16;5105179;28;1197;-69
2021/03/31 07:00:54;;;;;;;;;;;;;;;19.28;60.15;101917.16;5089681;28;1429;-65
2021/03/31 07:03:20;;;;;;;;;;;;;;;19.30;60.27;101923.28;5107846;28;1905;-66
2021/03/31 07:05:47;;;;;;;;;;;;;;;19.28;60.28;101917.16;5107892;28;1279;-67
2021/03/31 07:08:15;;;;;;;;;;;;;;;19.29;60.45;101925.06;5089999;28;1336;-67
2021/03/31 07:10:46;;;;;;;;;;;;;;;19.29;60.14;101924.19;5089806;28;1102;-67
2021/03/31 07:13:29;;;;;;;;;;;;;;;19.31;60.88;101924.97;5108871;28;1232;-68
2021/03/31 07:15:57;;;;;;;;;;;;;;;19.41;62.72;101936.94;5073035;28;1293;-69
2021/03/31 07:18:24;;;;;;;;;;;;;;;19.37;61.30;101932.66;5090423;28;1312;-67
2021/03/31 07:20:50;;;;;;;;;;;;;;;19.42;61.54;101933.38;5088930;28;1265;-69
2021/03/31 07:23:19;;;;;;;;;;;;;;;19.32;60.92;101929.34;5072284;28;1956;-68
2021/03/31 07:25:45;;;;;;;;;;;;;;;19.21;60.53;101923.66;5105200;28;1262;-68
2021/03/31 07:28:15;;;;;;;;;;;;;;;19.26;61.49;101934.88;5108113;28;1271;-67
2021/03/31 07:30:42;;;;;;;;;;;;;;;19.24;60.97;101931.44;5089533;28;1337;-69
2021/03/31 07:33:25;;;;;;;;;;;;;;;19.23;60.65;101929.72;5089857;28;1723;-67
2021/03/31 07:35:53;;;;;;;;;;;;;;;19.22;60.45;101936.78;5087971;28;1313;-67
2021/03/31 07:38:22;;;;;;;;;;;;;;;19.21;60.47;101928.94;5108734;28;1327;-68
2021/03/31 07:40:50;;;;;;;;;;;;;;;19.21;60.44;101932.41;5105660;28;1277;-69
2021/03/31 07:43:22;;;;;;;;;;;;;;;19.21;60.40;101940.31;5089923;28;1334;-69
2021/03/31 07:45:54;;;;;;;;;;;;;;;19.21;60.37;101936.84;5105615;28;1205;-67
2021/03/31 07:48:21;;;;;;;;;;;;;;;19.21;60.47;101934.22;5073150;28;1434;-66
2021/03/31 07:50:47;;;;;;;;;;;;;;;19.20;60.48;101940.41;5107740;28;1439;-67
2021/03/31 07:53:14;;;;;;;;;;;;;;;19.19;60.47;101938.69;5089982;28;1281;-66
2021/03/31 07:55:44;;;;;;;;;;;;;;;19.20;60.25;101943.03;5107639;28;1240;-66
2021/03/31 07:58:11;;;;;;;;;;;;;;;19.20;60.14;101943.03;5073177;28;1282;-67
2021/03/31 08:00:43;;;;;;;;;;;;;;;19.19;60.02;101936.03;5108278;28;1220;-67
2021/03/31 08:03:10;;;;;;;;;;;;;;;19.19;60.14;101938.69;5105915;28;1229;-67
2021/03/31 08:05:56;;;;;;;;;;;;;;;19.17;60.08;101938.75;5073064;28;1985;-68
2021/03/31 08:08:26;;;;;;;;;;;;;;;19.17;59.87;101935.25;5107585;28;1296;-66
2021/03/31 08:10:52;;;;;;;;;;;;;;;19.17;59.85;101940.53;5107741;28;1303;-68
2021/03/31 08:13:26;;;;;;;;;;;;;;;19.17;59.89;101935.25;5107998;28;1264;-66
2021/03/31 08:15:53;;;;;;;;;;;;;;;19.17;60.10;101937.88;5087829;28;1241;-69
2021/03/31 08:18:20;;;;;;;;;;;;;;;19.19;60.15;101943.97;5108122;28;1319;-68
2021/03/31 08:20:48;;;;;;;;;;;;;;;19.18;60.22;101935.16;5069988;28;1364;-69
2021/03/31 08:23:34;;;;;;;;;;;;;;;19.17;60.41;101938.75;5107033;28;1252;-68
2021/03/31 08:26:21;;;;;;;;;;;;;;;19.18;60.31;101937.81;5106643;28;1354;-69
2021/03/31 08:28:47;;;;;;;;;;;;;;;19.18;60.57;101947.53;5090807;28;1356;-68
2021/03/31 08:31:24;;;;;;;;;;;;;;;19.19;60.11;101946.59;5107260;28;1381;-69
2021/03/31 08:33:50;;;;;;;;;;;;;;;19.18;60.54;101948.38;5088825;28;1285;-67
2021/03/31 08:36:16;;;;;;;;;;;;;;;19.19;60.65;101951.88;5107439;28;1338;-68
2021/03/31 08:38:52;;;;;;;;;;;;;;;19.18;60.57;101942.25;5088762;28;1494;-67
2021/03/31 08:41:20;;;;;;;;;;;;;;;19.19;60.65;101947.47;5107189;28;1244;-66
2021/03/31 08:43:48;;;;;;;;;;;;;;;19.26;62.00;101950.72;5104759;28;1898;-73
2021/03/31 08:46:35;;;;;;;;;;;;;;;19.24;61.78;101947.28;5107214;28;1382;-69
2021/03/31 08:49:01;;;;;;;;;;;;;;;19.19;61.19;101950.09;5106015;28;1300;-68
2021/03/31 08:51:27;;;;;;;;;;;;;;;19.17;60.96;101951.09;5107349;28;1388;-68
2021/03/31 08:54:00;;;;;;;;;;;;;;;19.17;60.74;101956.38;5107163;28;1236;-69
2021/03/31 08:56:27;;;;;;;;;;;;;;;19.16;60.69;101958.16;5107403;28;1301;-67
2021/03/31 08:58:54;;;;;;;;;;;;;;;19.16;60.83;101963.44;5107568;28;1141;-67
2021/03/31 09:01:24;;;;;;;;;;;;;;;19.17;60.84;101953.72;5107291;28;1368;-70
2021/03/31 09:03:51;;;;;;;;;;;;;;;19.16;60.84;101952.00;5086294;28;1906;-73
2021/03/31 09:06:18;;;;;;;;;;;;;;;19.17;61.04;101949.31;5088907;28;1271;-67
2021/03/31 09:08:48;;;;;;;;;;;;;;;19.18;62.04;101951.03;5089234;28;1315;-69
2021/03/31 09:11:19;;;;;;;;;;;;;;;19.34;63.07;101949.50;5107258;28;1312;-69
2021/03/31 09:13:46;;;;;;;;;;;;;;;19.37;63.44;101949.38;5088623;28;1471;-68
2021/03/31 09:16:15;;;;;;;;;;;;;;;19.34;62.38;101954.78;5103477;28;1275;-70
2021/03/31 09:18:41;;;;;;;;;;;;;;;19.27;58.35;101952.47;5104747;28;1272;-71
2021/03/31 09:21:08;;;;;;;;;;;;;;;19.27;61.40;101949.81;5109946;28;1315;-67
2021/03/31 09:23:34;;;;;;;;;;;;;;;19.28;63.26;101948.88;5110921;28;1905;-66
2021/03/31 09:26:02;;;;;;;;;;;;;;;19.39;62.97;101951.97;5073825;28;1386;-69
2021/03/31 09:28:29;;;;;;;;;;;;;;;19.38;61.89;101950.22;5092862;28;1268;-68
2021/03/31 09:31:05;;;;;;;;;;;;;;;19.31;61.22;101946.09;5111361;28;1390;-69
2021/03/31 09:33:34;;;;;;;;;;;;;;;19.24;61.76;101945.50;5089570;28;1281;-69
2021/03/31 09:36:16;;;;;;;;;;;;;;;19.21;61.41;101947.41;5110248;28;1279;-68
2021/03/31 09:38:46;;;;;;;;;;;;;;;19.21;61.22;101945.63;5091955;28;1210;-69
2021/03/31 09:41:16;;;;;;;;;;;;;;;19.20;60.91;101940.41;5107803;28;1235;-68
2021/03/31 09:43:47;;;;;;;;;;;;;;;19.19;60.95;101950.09;5110382;28;2004;-67
2021/03/31 09:46:13;;;;;;;;;;;;;;;19.18;60.86;101948.38;5089954;28;1311;-65
2021/03/31 09:48:40;;;;;;;;;;;;;;;19.19;60.91;101949.25;5111123;28;1212;-64
2021/03/31 09:51:10;;;;;;;;;;;;;;;19.18;60.74;101951.03;5110763;28;1406;-68
2021/03/31 09:53:37;;;;;;;;;;;;;;;19.17;60.80;101953.72;5108648;28;1207;-68
2021/03/31 09:56:04;;;;;;;;;;;;;;;19.16;60.87;101952.00;5075558;28;1316;-66
2021/03/31 09:58:31;;;;;;;;;;;;;;;19.15;60.92;101948.50;5092472;28;1276;-68
2021/03/31 10:01:03;;;;;;;;;;;;;;;19.15;61.03;101947.66;5110007;28;1287;-69
2021/03/31 10:03:31;;;;;;;;;;;;;;;19.14;60.87;101943.28;5110276;28;1328;-69
2021/03/31 10:06:13;;;;;;;;;;;;;;;19.14;60.95;101943.28;5110171;28;1280;-67
2021/03/31 10:08:40;;;;;;;;;;;;;;;19.12;60.84;101942.50;5108206;28;1237;-70
2021/03/31 10:11:09;;;;;;;;;;;;;;;19.10;60.86;101940.78;5091635;28;1366;-69
2021/03/31 10:13:36;;;;;;;;;;;;;;;19.10;60.78;101935.50;5089388;28;1201;-68
2021/03/31 10:16:06;;;;;;;;;;;;;;;19.12;60.90;101931.94;5091698;28;1382;-69
2021/03/31 10:18:33;;;;;;;;;;;;;;;19.10;61.01;101935.50;5092143;28;1232;-71
2021/03/31 10:21:00;;;;;;;;;;;;;;;19.10;61.02;101930.22;5110190;28;1326;-70
2021/03/31 10:23:29;;;;;;;;;;;;;;;19.21;61.47;101934.22;5090933;28;1570;-68
2021/03/31 10:26:18;;;;;;;;;;;;;;;19.17;61.92;101924.69;5090599;28;1287;-70
2021/03/31 10:28:55;;;;;;;;;;;;;;;19.19;62.38;101925.47;5108324;28;1284;-73
2021/03/31 10:31:44;;;;;;;;;;;;;;;19.28;62.27;101933.03;5107257;28;1398;-69
2021/03/31 10:34:38;;;;;;;;;;;;;;;19.22;63.00;101928.84;5093776;28;1154;-68
2021/03/31 10:37:26;;;;;;;;;;;;;;;19.17;62.21;101917.63;5089719;28;1382;-68
2021/03/31 10:56:22;;;;;;;;;;;;;;;19.24;63.95;101908.50;5096410;28;1315;-68
2021/03/31 10:58:49;;;;;;;;;;;;;;;19.24;63.74;101900.59;5079051;28;1416;-67
2021/03/31 11:01:15;;;;;;;;;;;;;;;19.26;63.88;101898.75;5100572;28;1462;-67
2021/03/31 11:03:41;;;;;;;;;;;;;;;19.29;63.99;101903.91;5095480;28;1965;-65
2021/03/31 11:06:08;;;;;;;;;;;;;;;19.26;63.92;101901.41;5080875;28;1299;-67
2021/03/31 11:08:34;;;;;;;;;;;;;;;19.24;63.98;101890.00;5081903;28;1355;-67
2021/03/31 11:11:01;;;;;;;;;;;;;;;19.24;64.03;101883.91;5097904;28;1427;-66
2021/03/31 11:13:28;;;;;;;;;;;;;;;19.24;64.02;101881.25;5081454;28;1315;-67
2021/03/31 11:15:56;;;;;;;;;;;;;;;19.30;63.94;101879.19;5099630;28;1201;-64
2021/03/31 11:26:11;;;;;;;;;;;;;;;19.31;64.18;101865.06;5097682;28;1425;-67
2021/03/31 11:28:38;;;;;;;;;;;;;;;19.30;64.05;101867.78;5098077;28;1216;-67
2021/03/31 11:31:05;;;;;;;;;;;;;;;19.33;63.90;101873.78;5099499;28;1302;-65
2021/03/31 11:33:31;;;;;;;;;;;;;;;19.35;64.09;101868.44;5099241;28;1240;-68
2021/03/31 11:35:58;;;;;;;;;;;;;;;19.34;63.96;101869.38;5097477;28;1283;-67
2021/03/31 11:38:24;;;;;;;;;;;;;;;19.46;63.77;101861.81;5095065;28;1202;-70
2021/03/31 11:40:51;;;;;;;;;;;;;;;19.49;64.07;101858.19;5098895;28;1283;-69
2021/03/31 11:43:18;;;;;;;;;;;;;;;19.57;63.49;101856.09;5099192;28;1359;-68
2021/03/31 11:45:47;;;;;;;;;;;;;;;19.62;63.38;101848.81;5095154;28;1996;-66
2021/03/31 11:48:14;;;;;;;;;;;;;;;19.53;63.10;101822.78;5080538;28;1257;-70
2021/03/31 11:50:40;;;;;;;;;;;;;;;19.56;62.71;101833.22;5099509;28;1205;-75
2021/03/31 11:53:06;;;;;;;;;;;;;;;19.50;62.25;101834.34;5069644;28;1491;-76
2021/03/31 11:55:33;;;;;;;;;;;;;;;19.55;61.32;101831.50;5086681;28;1272;-69
2021/03/31 11:58:01;;;;;;;;;;;;;;;19.46;61.15;101838.03;5087542;28;1346;-70
2021/03/31 12:00:27;;;;;;;;;;;;;;;19.41;60.45;101831.22;5087610;28;1221;-70
2021/03/31 12:02:53;;;;;;;;;;;;;;;19.41;60.08;101828.59;5069660;28;1407;-68
2021/03/31 12:05:20;;;;;;;;;;;;;;;19.33;60.62;101830.69;5087683;28;1905;-68
2021/03/31 12:07:46;;;;;;;;;;;;;;;19.29;60.28;101839.66;5066414;28;1317;-68
2021/03/31 12:10:13;;;;;;;;;;;;;;;19.28;60.82;101840.56;5088070;28;1279;-69
2021/03/31 12:12:41;;;;;;;;;;;;;;;19.25;60.59;101838.03;5087876;28;1283;-71
2021/03/31 12:15:12;;;;;;;;;;;;;;;19.18;60.61;101824.22;5083508;28;1281;-68
2021/03/31 12:17:41;;;;;;;;;;;;;;;19.24;60.95;101825.78;5068639;28;1418;-69
2021/03/31 12:20:12;;;;;;;;;;;;;;;19.26;58.82;101829.22;5087831;28;1225;-69
2021/03/31 12:22:39;;;;;;;;;;;;;;;19.16;56.77;101817.31;5088011;28;1308;-70
2021/03/31 12:25:05;;;;;;;;;;;;;;;19.15;55.71;101819.06;5087510;28;1909;-69
2021/03/31 12:27:45;;;;;;;;;;;;;;;19.17;55.17;101819.91;5068980;28;1453;-75
2021/03/31 12:30:17;;;;;;;;;;;;;;;19.23;57.01;101813.50;5053755;28;1467;-76
2021/03/31 12:32:49;;;;;;;;;;;;;;;19.25;58.19;101812.50;5068562;28;1353;-75
2021/03/31 12:35:36;;;;;;;;;;;;;;;19.33;59.31;101814.81;5083125;28;1107;-69
2021/03/31 12:38:05;;;;;;;;;;;;;;;19.34;59.66;101813.88;5069016;28;1367;-72
2021/03/31 12:40:33;;;;;;;;;;;;;;;19.47;60.39;101808.06;5083667;28;1451;-72
2021/03/31 12:43:02;;;;;;;;;;;;;;;19.48;61.06;101803.63;5087628;28;1299;-76
2021/03/31 12:45:34;;;;;;;;;;;;;;;19.48;61.49;101803.63;5069082;28;1902;-73
2021/03/31 12:48:01;;;;;;;;;;;;;;;19.48;62.35;101801.84;5052652;28;1382;-72
2021/03/31 12:50:30;;;;;;;;;;;;;;;19.60;62.32;101803.97;5069460;28;1098;-73
2021/03/31 12:53:04;;;;;;;;;;;;;;;19.62;63.10;101803.88;5101339;28;1351;-66
2021/03/31 12:55:37;;;;;;;;;;;;;;;19.55;62.86;101805.06;5127628;27;1359;-73
2021/03/31 12:58:08;;;;;;;;;;;;;;;19.46;63.28;101794.88;5131689;27;1465;-73
2021/03/31 13:00:35;;;;;;;;;;;;;;;19.41;63.64;101794.25;5097580;27;1324;-70
2021/03/31 13:03:38;;;;;;;;;;;;;;;19.38;63.87;101789.06;5130106;27;1159;-70
2021/03/31 13:06:05;;;;;;;;;;;;;;;19.38;63.86;101792.56;5132527;27;1909;-71
2021/03/31 13:09:02;;;;;;;;;;;;;;;19.37;63.98;101787.31;5099800;27;1157;-72
2021/03/31 13:11:52;;;;;;;;;;;;;;;19.37;64.21;101782.03;5112879;27;1325;-72
2021/03/31 13:17:19;;;;;;;;;;;;;;;19.45;63.98;101777.34;5127853;27;1413;-75
2021/03/31 13:25:59;;;;;;;;;;;;;;;19.43;64.25;101773.88;5096183;27;2022;-80
2021/03/31 13:31:09;;;;;;;;;;;;;;;19.38;64.47;101763.50;5123813;27;1405;-73
2021/03/31 13:33:43;;;;;;;;;;;;;;;19.38;64.46;101765.28;5099047;27;1416;-76
2021/03/31 13:39:08;;;;;;;;;;;;;;;19.38;64.34;101760.84;5122914;27;1300;-83
2021/03/31 13:41:36;;;;;;;;;;;;;;;19.37;64.41;101752.97;5089596;27;1441;-78